Time;durP1;ratioP1;P1;durP2;ratioP2;P2;SDS_P1;SDS_P2;PMS_P1;PMS_P2;Temp;Humidity;BMP_temperature;BMP_pressure;BME280_temperature;BME280_humidity;BME280_pressure;Samples;Min_cycle;Max_cycle;Signal;HPM_P1;HPM_P2
2023/10/07 00:00:54;;;;;;;19.70;10.60;;;16.00;99.90;;;;;;4993307;28;20073;-75
2023/10/07 00:03:20;;;;;;;20.27;9.25;;;15.90;99.90;;;;;;4993939;28;20023;-75
2023/10/07 00:05:47;;;;;;;14.48;9.90;;;15.90;99.90;;;;;;4999435;28;20593;-75
2023/10/07 00:08:16;;;;;;;16.52;9.38;;;15.60;99.90;;;;;;4999053;28;20121;-75
2023/10/07 00:10:43;;;;;;;15.32;10.20;;;15.50;99.90;;;;;;5000600;28;20026;-75
2023/10/07 00:13:09;;;;;;;15.65;10.15;;;15.60;99.90;;;;;;4998180;28;20042;-74
2023/10/07 00:15:47;;;;;;;19.17;10.52;;;15.50;99.90;;;;;;4997055;28;20034;-76
2023/10/07 00:18:14;;;;;;;16.45;10.35;;;15.60;99.90;;;;;;4990677;28;20069;-76
2023/10/07 00:20:52;;;;;;;15.68;10.20;;;15.80;99.90;;;;;;4998141;28;20021;-75
2023/10/07 00:23:20;;;;;;;16.15;10.77;;;15.90;99.90;;;;;;4992883;28;20045;-75
2023/10/07 00:25:49;;;;;;;18.17;10.15;;;15.90;99.90;;;;;;4996431;28;20495;-75
2023/10/07 00:28:31;;;;;;;14.32;9.82;;;16.00;99.90;;;;;;5003261;28;20029;-72
2023/10/07 00:31:05;;;;;;;14.65;10.43;;;16.00;99.90;;;;;;4999003;28;20030;-74
2023/10/07 00:33:49;;;;;;;18.27;9.55;;;15.90;99.90;;;;;;4990905;28;20401;-72
2023/10/07 00:36:22;;;;;;;14.77;10.18;;;15.90;99.90;;;;;;4995252;28;20380;-72
2023/10/07 00:38:47;;;;;;;15.80;9.98;;;15.70;99.90;;;;;;4997818;28;20520;-72
2023/10/07 00:41:18;;;;;;;24.27;11.50;;;15.60;99.90;;;;;;4998810;28;20081;-72
2023/10/07 00:43:44;;;;;;;14.55;8.60;;;15.70;99.90;;;;;;4995050;28;20085;-72
2023/10/07 00:48:47;;;;;;;17.52;9.35;;;15.60;99.90;;;;;;5004866;28;20033;-73
2023/10/07 00:51:17;;;;;;;13.43;9.68;;;15.60;99.90;;;;;;4995895;28;20073;-73
2023/10/07 00:53:51;;;;;;;14.68;9.75;;;15.50;99.90;;;;;;4993427;28;20734;-72
2023/10/07 00:56:17;;;;;;;15.73;10.15;;;15.40;99.90;;;;;;4994581;28;20022;-73
2023/10/07 00:58:46;;;;;;;18.10;10.23;;;15.50;99.90;;;;;;4998415;28;21132;-72
2023/10/07 01:01:13;;;;;;;15.07;9.35;;;15.80;99.90;;;;;;4991979;28;20496;-73
2023/10/07 01:03:47;;;;;;;14.63;9.05;;;15.80;99.90;;;;;;4994446;28;20109;-71
2023/10/07 01:06:22;;;;;;;16.30;9.82;;;15.70;99.90;;;;;;4991741;28;20081;-73
2023/10/07 01:08:55;;;;;;;13.77;9.57;;;15.60;99.90;;;;;;4998051;28;20021;-72
2023/10/07 01:11:24;;;;;;;14.95;9.52;;;15.60;99.90;;;;;;4999082;28;20108;-72
2023/10/07 01:13:50;;;;;;;16.45;9.45;;;15.50;99.90;;;;;;4993841;28;20049;-72
2023/10/07 01:16:40;;;;;;;15.20;9.27;;;15.40;99.90;;;;;;4998745;28;20112;-72
2023/10/07 01:21:40;;;;;;;14.55;9.55;;;15.40;99.90;;;;;;4998323;28;20519;-72
2023/10/07 01:24:06;;;;;;;13.45;8.80;;;15.30;99.90;;;;;;5000067;28;20113;-73
2023/10/07 01:26:39;;;;;;;14.90;9.65;;;15.30;99.90;;;;;;4996522;28;20029;-72
2023/10/07 01:29:15;;;;;;;15.07;9.83;;;15.30;99.90;;;;;;4997196;28;20611;-72
2023/10/07 01:34:34;;;;;;;16.88;9.52;;;15.30;99.90;;;;;;4992845;28;20061;-72
2023/10/07 01:37:11;;;;;;;14.77;8.77;;;15.30;99.90;;;;;;4997457;28;20026;-72
2023/10/07 01:39:40;;;;;;;17.58;9.27;;;15.10;99.90;;;;;;4996512;28;20083;-72
2023/10/07 01:42:12;;;;;;;14.80;10.13;;;15.10;99.90;;;;;;4993168;28;20030;-72
2023/10/07 01:44:41;;;;;;;15.70;9.93;;;15.10;99.90;;;;;;4994849;28;20037;-72
2023/10/07 01:47:23;;;;;;;15.52;9.05;;;15.10;99.90;;;;;;4993566;28;20082;-73
2023/10/07 01:49:57;;;;;;;18.67;9.77;;;15.10;99.90;;;;;;4992283;28;20034;-72
2023/10/07 01:52:26;;;;;;;14.33;8.87;;;15.00;99.90;;;;;;4993213;28;20523;-72
2023/10/07 01:54:54;;;;;;;14.45;9.45;;;15.20;99.90;;;;;;4994414;28;20030;-72
2023/10/07 01:57:20;;;;;;;15.68;10.02;;;15.20;99.90;;;;;;4989808;28;20066;-72
2023/10/07 01:59:46;;;;;;;15.85;9.75;;;15.10;99.90;;;;;;4995118;28;20508;-72
2023/10/07 02:02:14;;;;;;;12.73;8.25;;;15.20;99.90;;;;;;4990946;28;20041;-72
2023/10/07 02:04:40;;;;;;;22.48;10.10;;;15.10;99.90;;;;;;4988446;28;20089;-72
2023/10/07 02:07:08;;;;;;;16.58;10.15;;;15.10;99.90;;;;;;4991069;28;20026;-72
2023/10/07 02:09:40;;;;;;;13.35;9.80;;;15.00;99.90;;;;;;4994497;28;20040;-72
2023/10/07 02:12:09;;;;;;;17.13;10.25;;;14.90;99.90;;;;;;4988128;28;20044;-73
2023/10/07 02:14:38;;;;;;;13.85;8.75;;;15.00;99.90;;;;;;4991143;28;20045;-73
2023/10/07 02:17:08;;;;;;;14.73;9.43;;;15.00;99.90;;;;;;4998996;28;20052;-72
2023/10/07 02:19:34;;;;;;;15.68;10.80;;;15.10;99.90;;;;;;4996394;28;24869;-72
2023/10/07 02:22:06;;;;;;;14.07;9.00;;;15.10;99.90;;;;;;4990756;28;20026;-73
2023/10/07 02:24:34;;;;;;;15.00;9.85;;;15.10;99.90;;;;;;4992318;28;20105;-72
2023/10/07 02:27:05;;;;;;;14.18;9.73;;;15.00;99.90;;;;;;4990521;28;20084;-72
2023/10/07 02:29:33;;;;;;;16.67;9.88;;;15.10;99.90;;;;;;4989248;28;20030;-73
2023/10/07 02:32:14;;;;;;;14.52;9.57;;;15.00;99.90;;;;;;4988727;28;20125;-72
2023/10/07 02:34:51;;;;;;;17.90;9.20;;;14.90;99.90;;;;;;4995099;28;20403;-72
2023/10/07 02:37:30;;;;;;;14.93;8.77;;;15.00;99.90;;;;;;5000773;28;20350;-72
2023/10/07 02:40:01;;;;;;;14.85;8.63;;;14.90;99.90;;;;;;4994949;28;20033;-72
2023/10/07 02:42:31;;;;;;;16.85;9.30;;;14.80;99.90;;;;;;4987769;28;20027;-71
2023/10/07 02:45:05;;;;;;;21.05;9.13;;;14.90;99.90;;;;;;4996713;28;20484;-72
2023/10/07 02:47:31;;;;;;;;;;;14.80;99.90;;;;;;4998537;28;20061;-72
2023/10/07 02:50:00;;;;;;;14.63;8.85;;;14.80;99.90;;;;;;4991457;28;19916;-72
2023/10/07 02:52:37;;;;;;;12.82;9.00;;;14.90;99.90;;;;;;4994309;28;20026;-72
2023/10/07 02:57:55;;;;;;;14.25;9.20;;;15.00;99.90;;;;;;4957978;28;20042;-72
2023/10/07 03:00:49;;;;;;;14.27;10.25;;;14.90;99.90;;;;;;4993843;28;20412;-72
2023/10/07 03:05:59;;;;;;;15.77;9.45;;;15.20;99.90;;;;;;4988389;28;20042;-71
2023/10/07 03:11:11;;;;;;;14.25;8.75;;;15.10;99.90;;;;;;4987921;28;20089;-72
2023/10/07 03:13:45;;;;;;;15.05;8.80;;;15.10;99.90;;;;;;5003325;28;20046;-72
2023/10/07 03:18:47;;;;;;;13.15;7.85;;;15.10;99.90;;;;;;4985591;28;20026;-72
2023/10/07 03:21:15;;;;;;;14.88;8.45;;;15.20;99.90;;;;;;4986377;28;20030;-72
2023/10/07 03:23:47;;;;;;;13.05;8.13;;;15.20;99.90;;;;;;4990340;28;20042;-73
2023/10/07 03:26:21;;;;;;;18.10;10.32;;;15.10;99.90;;;;;;4990719;28;20033;-72
2023/10/07 03:28:54;;;;;;;;;;;14.90;99.90;;;;;;4995741;28;20038;-72
2023/10/07 03:31:29;;;;;;;14.32;8.70;;;14.70;99.90;;;;;;4988920;28;19909;-72
2023/10/07 03:33:58;;;;;;;15.43;8.98;;;14.60;99.90;;;;;;4995862;28;20143;-72
2023/10/07 03:39:23;;;;;;;21.48;9.95;;;14.80;99.90;;;;;;4989233;28;20053;-71
2023/10/07 03:41:59;;;;;;;15.80;10.10;;;14.80;99.90;;;;;;4989904;28;20037;-72
2023/10/07 03:44:25;;;;;;;13.00;9.45;;;14.70;99.90;;;;;;4989841;28;20058;-74
2023/10/07 03:46:54;;;;;;;11.45;7.97;;;14.60;99.90;;;;;;4981565;28;20427;-72
2023/10/07 03:49:21;;;;;;;14.80;8.63;;;14.70;99.90;;;;;;4990425;28;20034;-72
2023/10/07 03:52:12;;;;;;;13.65;8.48;;;15.20;99.90;;;;;;4987814;28;20027;-72
2023/10/07 03:54:42;;;;;;;14.60;8.00;;;15.30;99.90;;;;;;4988798;28;20069;-72
2023/10/07 03:57:09;;;;;;;12.23;8.00;;;15.20;99.90;;;;;;4994064;28;20528;-72
2023/10/07 03:59:34;;;;;;;17.35;9.65;;;15.20;99.90;;;;;;4986223;28;20065;-72
2023/10/07 04:04:58;;;;;;;14.57;8.73;;;15.10;99.90;;;;;;4984040;28;20041;-72
2023/10/07 04:07:24;;;;;;;14.18;8.95;;;14.90;99.90;;;;;;4992079;28;20030;-72
2023/10/07 04:09:51;;;;;;;13.40;7.95;;;14.90;99.90;;;;;;4984759;28;20033;-72
2023/10/07 04:12:16;;;;;;;12.25;8.10;;;14.80;99.90;;;;;;4987856;28;20117;-72
2023/10/07 04:14:42;;;;;;;14.90;8.18;;;15.00;99.90;;;;;;4988244;28;20141;-72
2023/10/07 04:17:12;;;;;;;12.77;8.38;;;15.10;99.90;;;;;;4993409;28;20461;-72
2023/10/07 04:19:42;;;;;;;14.60;8.32;;;15.00;99.90;;;;;;4987938;28;20026;-72
2023/10/07 04:22:11;;;;;;;14.55;8.00;;;15.10;99.90;;;;;;4986085;28;20056;-72
2023/10/07 04:24:44;;;;;;;12.02;8.43;;;15.10;99.90;;;;;;4991918;28;20053;-73
2023/10/07 04:27:18;;;;;;;14.32;8.50;;;15.00;99.90;;;;;;4992077;28;20628;-71
2023/10/07 04:29:44;;;;;;;9.95;7.28;;;14.90;99.90;;;;;;4992545;28;20045;-72
2023/10/07 04:32:20;;;;;;;13.85;8.05;;;14.90;99.90;;;;;;4989046;28;20030;-71
2023/10/07 04:35:00;;;;;;;12.85;7.25;;;14.70;99.90;;;;;;4990689;28;20054;-72
2023/10/07 04:37:43;;;;;;;13.77;8.32;;;14.70;99.90;;;;;;4987825;28;20461;-72
2023/10/07 04:42:47;;;;;;;12.23;7.55;;;14.70;99.90;;;;;;4984081;28;20488;-72
2023/10/07 04:45:23;;;;;;;13.77;7.38;;;14.70;99.90;;;;;;4986883;28;20112;-72
2023/10/07 04:47:57;;;;;;;13.75;7.75;;;14.70;99.90;;;;;;4987130;28;20045;-72
2023/10/07 04:50:35;;;;;;;12.82;8.32;;;14.50;99.90;;;;;;4983995;28;20145;-72
2023/10/07 04:53:03;;;;;;;10.95;7.38;;;14.60;99.90;;;;;;4984077;28;20044;-71
2023/10/07 04:55:30;;;;;;;12.32;8.00;;;14.70;99.90;;;;;;4988221;28;20439;-72
2023/10/07 05:02:59;;;;;;;14.18;7.72;;;14.70;99.90;;;;;;4988023;28;20656;-72
2023/10/07 05:05:30;;;;;;;12.25;7.68;;;14.60;99.90;;;;;;4988899;28;20121;-72
2023/10/07 05:08:08;;;;;;;10.98;6.88;;;14.60;99.90;;;;;;4991784;28;20037;-72
2023/10/07 05:10:52;;;;;;;13.70;7.68;;;14.60;99.90;;;;;;4982957;28;20125;-71
2023/10/07 05:13:19;;;;;;;17.83;9.35;;;14.60;99.90;;;;;;4985666;28;20461;-73
2023/10/07 05:15:44;;;;;;;13.38;8.18;;;14.40;99.90;;;;;;4985114;28;20037;-72
2023/10/07 05:18:13;;;;;;;14.23;8.43;;;14.30;99.90;;;;;;4988224;28;20472;-72
2023/10/07 05:20:41;;;;;;;14.05;7.82;;;14.20;99.90;;;;;;4991467;28;20018;-72
2023/10/07 05:23:07;;;;;;;15.65;7.97;;;14.40;99.90;;;;;;4987549;28;21119;-72
2023/10/07 05:25:35;;;;;;;12.82;7.90;;;14.60;99.90;;;;;;4994534;28;20034;-72
2023/10/07 05:28:11;;;;;;;11.75;7.22;;;14.60;99.90;;;;;;4989259;28;20038;-72
2023/10/07 05:30:38;;;;;;;12.57;7.38;;;14.60;99.90;;;;;;4989648;28;20045;-72
2023/10/07 05:33:08;;;;;;;11.85;6.88;;;14.50;99.90;;;;;;4988151;28;20476;-73
2023/10/07 05:35:37;;;;;;;11.07;7.05;;;14.60;99.90;;;;;;4988174;28;20616;-73
2023/10/07 05:38:09;;;;;;;12.20;6.82;;;14.70;99.90;;;;;;4989106;28;20038;-73
2023/10/07 05:40:36;;;;;;;14.07;7.85;;;14.80;99.90;;;;;;4993423;28;20026;-72
2023/10/07 05:43:07;;;;;;;13.30;8.77;;;14.80;99.90;;;;;;4986708;28;20037;-73
2023/10/07 05:45:34;;;;;;;13.05;7.53;;;14.70;99.90;;;;;;4984835;28;20050;-74
2023/10/07 05:48:00;;;;;;;13.45;7.60;;;14.70;99.90;;;;;;4994371;28;20053;-73
2023/10/07 05:50:27;;;;;;;12.30;7.72;;;14.70;99.90;;;;;;4988782;28;20053;-73
2023/10/07 05:52:54;;;;;;;10.88;6.68;;;14.70;99.90;;;;;;4995215;28;20034;-72
2023/10/07 05:55:19;;;;;;;10.55;6.82;;;14.60;99.90;;;;;;4990132;28;20042;-72
2023/10/07 05:57:45;;;;;;;13.93;7.30;;;14.70;99.90;;;;;;4986738;28;20567;-72
2023/10/07 06:00:11;;;;;;;10.60;7.40;;;14.70;99.90;;;;;;4986149;28;20073;-73
2023/10/07 06:02:40;;;;;;;12.27;6.97;;;14.90;99.90;;;;;;4990875;28;20046;-72
2023/10/07 06:05:06;;;;;;;17.38;6.93;;;14.80;99.90;;;;;;4989277;28;20113;-73
2023/10/07 06:07:32;;;;;;;12.60;7.32;;;14.80;99.90;;;;;;4988745;28;20156;-73
2023/10/07 06:09:59;;;;;;;12.82;7.00;;;14.90;99.90;;;;;;4995875;28;20030;-72
2023/10/07 06:12:25;;;;;;;13.05;6.65;;;14.80;99.90;;;;;;4985543;28;20038;-73
2023/10/07 06:14:52;;;;;;;13.23;6.75;;;14.70;99.90;;;;;;4995397;28;20037;-73
2023/10/07 06:17:20;;;;;;;10.77;6.47;;;14.50;99.90;;;;;;4995664;28;20432;-73
2023/10/07 06:19:45;;;;;;;13.25;7.78;;;14.50;99.90;;;;;;4983263;28;20039;-75
2023/10/07 06:22:11;;;;;;;11.30;7.28;;;14.50;99.90;;;;;;4992859;28;20022;-73
2023/10/07 06:24:41;;;;;;;12.38;7.82;;;14.70;99.90;;;;;;4989209;28;20030;-72
2023/10/07 06:27:11;;;;;;;13.57;6.80;;;14.60;99.90;;;;;;4990283;28;20034;-72
2023/10/07 06:29:43;;;;;;;13.07;7.25;;;14.70;99.90;;;;;;4986151;28;20480;-72
2023/10/07 06:35:00;;;;;;;12.65;7.22;;;14.60;99.90;;;;;;4974902;28;20065;-72
2023/10/07 06:37:29;;;;;;;10.57;6.80;;;14.70;99.90;;;;;;4993636;28;20034;-72
2023/10/07 06:40:00;;;;;;;10.27;6.78;;;14.60;99.90;;;;;;4991243;28;20034;-72
2023/10/07 06:42:27;;;;;;;10.75;6.32;;;14.70;99.90;;;;;;4985233;28;20088;-73
2023/10/07 06:44:56;;;;;;;9.38;6.35;;;14.70;99.90;;;;;;4991640;28;20030;-73
2023/10/07 06:47:29;;;;;;;12.10;6.25;;;14.70;99.90;;;;;;4991002;28;20108;-75
2023/10/07 06:49:56;;;;;;;10.38;6.45;;;14.80;99.90;;;;;;5001797;28;20189;-72
2023/10/07 06:52:24;;;;;;;14.07;6.68;;;14.70;99.90;;;;;;4987626;28;20030;-73
2023/10/07 06:54:54;;;;;;;11.70;7.63;;;14.70;99.90;;;;;;4993420;28;22176;-72
2023/10/07 06:57:20;;;;;;;10.70;6.35;;;14.70;99.90;;;;;;4996035;28;20161;-73
2023/10/07 06:59:45;;;;;;;12.95;7.47;;;14.90;99.90;;;;;;4998656;28;20046;-72
2023/10/07 07:02:18;;;;;;;11.18;6.22;;;15.00;99.90;;;;;;4988550;28;20421;-73
2023/10/07 07:04:43;;;;;;;10.70;6.55;;;14.80;99.90;;;;;;4984940;28;20029;-72
2023/10/07 07:07:16;;;;;;;10.18;6.13;;;14.90;99.90;;;;;;4990476;28;20050;-74
2023/10/07 07:09:58;;;;;;;11.18;6.30;;;14.80;99.90;;;;;;4991825;28;20026;-73
2023/10/07 07:12:26;;;;;;;12.73;6.40;;;14.80;99.90;;;;;;4997874;28;20058;-72
2023/10/07 07:14:52;;;;;;;11.02;6.70;;;14.90;99.90;;;;;;4993489;28;20049;-72
2023/10/07 07:22:38;;;;;;;13.18;7.72;;;15.00;99.90;;;;;;4992423;28;20544;-72
2023/10/07 07:25:10;;;;;;;10.70;6.00;;;14.90;99.90;;;;;;4989694;28;20574;-72
2023/10/07 07:27:35;;;;;;;15.40;6.80;;;14.90;99.90;;;;;;4987605;28;20053;-73
2023/10/07 07:30:02;;;;;;;12.30;6.70;;;15.00;99.90;;;;;;4986099;28;20499;-72
2023/10/07 07:32:37;;;;;;;11.68;6.35;;;15.00;99.90;;;;;;4986119;28;20058;-74
2023/10/07 07:35:04;;;;;;;12.30;6.30;;;15.10;99.90;;;;;;4994976;28;20046;-73
2023/10/07 07:37:33;;;;;;;11.82;6.97;;;15.10;99.90;;;;;;4992563;28;20033;-74
2023/10/07 07:40:35;;;;;;;9.90;6.63;;;15.10;99.90;;;;;;4987149;28;20226;-74
2023/10/07 07:42:57;;;;;;;11.60;6.07;;;15.20;99.90;;;;;;4986955;28;20045;-73
2023/10/07 07:45:27;;;;;;;10.32;5.50;;;15.30;99.90;;;;;;4993747;28;20064;-73
2023/10/07 07:47:55;;;;;;;10.73;6.38;;;15.40;99.90;;;;;;5002522;28;20052;-73
2023/10/07 07:50:22;;;;;;;10.35;7.15;;;15.40;99.90;;;;;;4995852;28;20108;-73
2023/10/07 07:52:50;;;;;;;10.18;6.05;;;15.50;99.90;;;;;;5001254;28;20475;-73
2023/10/07 07:55:16;;;;;;;11.02;6.22;;;15.60;99.90;;;;;;5006914;28;20041;-72
2023/10/07 07:57:45;;;;;;;10.60;5.68;;;15.60;99.90;;;;;;5004577;28;20038;-73
2023/10/07 08:00:20;;;;;;;10.52;6.38;;;15.60;99.90;;;;;;4999829;28;20069;-73
2023/10/07 08:02:48;;;;;;;11.00;6.00;;;15.70;99.90;;;;;;5001354;28;20029;-72
2023/10/07 08:05:16;;;;;;;10.40;6.15;;;15.70;99.90;;;;;;4987043;28;20117;-72
2023/10/07 08:07:43;;;;;;;11.05;6.20;;;15.70;99.90;;;;;;4997932;28;20030;-73
2023/10/07 08:10:10;;;;;;;12.65;6.68;;;15.70;99.90;;;;;;4999026;28;20116;-73
2023/10/07 08:12:37;;;;;;;10.52;5.78;;;15.70;99.90;;;;;;5005573;28;20472;-73
2023/10/07 08:17:37;;;;;;;10.10;5.88;;;15.80;99.90;;;;;;5006236;28;20309;-71
2023/10/07 08:20:12;;;;;;;12.23;6.07;;;15.70;99.90;;;;;;5000424;28;20125;-72
2023/10/07 08:22:45;;;;;;;14.30;5.88;;;15.70;99.90;;;;;;4987298;28;20104;-72
2023/10/07 08:28:04;;;;;;;10.30;6.40;;;15.70;99.90;;;;;;5006253;28;20543;-72
2023/10/07 08:30:37;;;;;;;10.17;6.10;;;15.80;99.90;;;;;;5005130;28;20598;-72
2023/10/07 08:33:06;;;;;;;16.27;6.88;;;15.80;99.90;;;;;;5003492;28;20296;-72
2023/10/07 08:35:34;;;;;;;9.82;6.53;;;16.10;99.90;;;;;;5001779;28;20488;-72
2023/10/07 08:38:02;;;;;;;13.63;7.20;;;16.10;99.90;;;;;;4990915;28;20046;-72
2023/10/07 08:40:49;;;;;;;11.65;6.25;;;16.10;99.90;;;;;;4989850;28;20070;-72
2023/10/07 08:43:25;;;;;;;11.02;6.47;;;16.10;99.90;;;;;;4999653;28;20049;-72
2023/10/07 08:45:51;;;;;;;9.98;6.38;;;16.20;99.90;;;;;;5006465;28;20032;-72
2023/10/07 08:48:17;;;;;;;12.20;6.63;;;16.20;99.90;;;;;;5003936;28;20464;-72
2023/10/07 08:50:55;;;;;;;12.18;6.95;;;16.20;99.90;;;;;;5009450;28;20029;-72
2023/10/07 08:53:23;;;;;;;12.30;6.22;;;16.30;99.90;;;;;;5009136;28;20026;-72
2023/10/07 08:55:53;;;;;;;14.18;7.05;;;16.30;99.90;;;;;;5008313;28;20036;-72
2023/10/07 08:58:22;;;;;;;12.20;5.93;;;16.40;99.90;;;;;;5005851;28;20586;-71
2023/10/07 09:00:50;;;;;;;12.38;6.20;;;16.50;99.90;;;;;;5007313;28;20046;-71
2023/10/07 09:03:18;;;;;;;11.30;5.82;;;16.60;99.90;;;;;;5008061;28;20578;-70
2023/10/07 09:05:48;;;;;;;11.02;6.18;;;16.50;99.90;;;;;;5008202;28;20133;-74
2023/10/07 09:08:15;;;;;;;14.82;5.60;;;16.60;99.90;;;;;;5004576;28;20052;-71
2023/10/07 09:10:47;;;;;;;8.02;5.43;;;16.70;99.90;;;;;;5009315;28;20033;-71
2023/10/07 09:13:19;;;;;;;12.10;6.90;;;16.80;99.90;;;;;;4997070;28;20141;-72
2023/10/07 09:15:52;;;;;;;10.85;6.13;;;16.90;99.90;;;;;;4993197;28;20053;-73
2023/10/07 09:18:22;;;;;;;14.57;7.15;;;17.00;99.90;;;;;;4991174;28;20042;-72
2023/10/07 09:20:50;;;;;;;11.15;6.22;;;17.10;99.90;;;;;;4995219;28;20029;-72
2023/10/07 09:23:19;;;;;;;9.73;5.65;;;17.10;99.90;;;;;;4998044;28;20027;-72
2023/10/07 09:25:55;;;;;;;10.75;6.30;;;17.10;99.90;;;;;;4990926;28;20536;-72
2023/10/07 09:28:31;;;;;;;10.25;6.38;;;17.10;99.90;;;;;;4993163;28;20040;-74
2023/10/07 09:31:06;;;;;;;9.10;5.50;;;17.00;99.90;;;;;;4990829;28;20037;-73
2023/10/07 09:33:35;;;;;;;9.82;6.05;;;17.20;99.90;;;;;;4994757;28;20524;-72
2023/10/07 09:39:04;;;;;;;11.73;5.78;;;17.60;99.90;;;;;;4993917;28;20041;-72
2023/10/07 09:41:32;;;;;;;10.35;6.50;;;17.60;99.90;;;;;;4992342;28;20033;-72
2023/10/07 09:44:00;;;;;;;8.20;5.60;;;17.60;99.90;;;;;;4992307;28;20065;-71
2023/10/07 09:46:27;;;;;;;9.18;5.88;;;17.60;99.90;;;;;;4984588;28;20026;-72
2023/10/07 09:48:54;;;;;;;9.27;5.40;;;17.70;99.90;;;;;;4992640;28;20092;-72
2023/10/07 09:51:29;;;;;;;9.20;5.47;;;17.80;99.90;;;;;;4988245;28;20045;-71
2023/10/07 09:54:22;;;;;;;12.10;5.90;;;17.80;99.90;;;;;;4985672;28;20140;-72
2023/10/07 09:57:06;;;;;;;12.65;5.90;;;17.80;99.90;;;;;;4984115;28;20026;-71
2023/10/07 09:59:56;;;;;;;10.07;5.78;;;18.10;99.90;;;;;;4991638;28;20061;-70
2023/10/07 10:03:04;;;;;;;9.38;5.97;;;18.20;99.90;;;;;;4989234;28;20026;-72
2023/10/07 10:05:50;;;;;;;10.05;5.28;;;18.40;99.90;;;;;;4991628;28;20027;-71
2023/10/07 10:08:27;;;;;;;11.10;6.65;;;18.50;99.90;;;;;;4989344;28;20125;-71
2023/10/07 10:10:57;;;;;;;10.18;5.90;;;18.70;99.90;;;;;;4993919;28;20034;-71
2023/10/07 10:16:14;;;;;;;9.45;5.78;;;18.60;99.90;;;;;;4992712;28;20076;-71
2023/10/07 10:19:11;;;;;;;10.27;6.07;;;18.50;99.90;;;;;;4998497;28;20101;-71
2023/10/07 10:21:37;;;;;;;12.75;6.43;;;19.10;99.90;;;;;;4990859;28;20034;-71
2023/10/07 10:24:03;;;;;;;10.25;5.75;;;19.10;99.90;;;;;;4989531;28;20052;-71
2023/10/07 10:26:33;;;;;;;10.75;6.00;;;19.10;99.90;;;;;;4993388;28;20034;-70
2023/10/07 10:29:07;;;;;;;10.52;5.57;;;19.00;99.90;;;;;;4989046;28;20459;-71
2023/10/07 10:31:34;;;;;;;10.00;5.85;;;19.00;99.90;;;;;;4999735;28;20247;-70
2023/10/07 10:34:05;;;;;;;10.32;6.10;;;19.30;99.90;;;;;;4999979;28;20093;-69
2023/10/07 10:36:36;;;;;;;27.02;6.68;;;19.30;99.90;;;;;;4995352;28;20034;-72
2023/10/07 10:39:05;;;;;;;10.32;5.43;;;19.50;99.90;;;;;;4996535;28;20095;-72
2023/10/07 10:41:32;;;;;;;10.23;6.30;;;19.90;99.90;;;;;;4992029;28;20400;-71
2023/10/07 10:44:10;;;;;;;14.57;5.93;;;19.80;99.90;;;;;;4995097;28;20026;-71
2023/10/07 10:46:51;;;;;;;9.43;5.68;;;19.70;99.50;;;;;;4991172;28;20098;-72
2023/10/07 10:49:20;;;;;;;9.90;5.80;;;19.70;99.80;;;;;;4986468;28;20042;-71
2023/10/07 10:51:48;;;;;;;9.65;5.30;;;19.80;99.30;;;;;;4976723;28;20054;-71
2023/10/07 10:54:18;;;;;;;8.50;5.32;;;19.80;99.00;;;;;;4995082;28;20054;-71
2023/10/07 10:56:58;;;;;;;10.80;6.57;;;19.90;99.40;;;;;;4994839;28;20034;-71
2023/10/07 10:59:37;;;;;;;10.52;5.38;;;20.00;98.70;;;;;;4986712;28;20501;-71
2023/10/07 11:02:05;;;;;;;9.38;4.88;;;20.10;99.10;;;;;;4988487;28;20030;-71
2023/10/07 11:04:32;;;;;;;10.77;5.65;;;20.30;99.20;;;;;;4994327;28;20034;-71
2023/10/07 11:06:58;;;;;;;10.93;5.35;;;20.50;98.50;;;;;;4989909;28;20362;-71
2023/10/07 11:09:34;;;;;;;15.68;6.22;;;20.60;98.60;;;;;;4976402;28;20030;-71
2023/10/07 11:12:08;;;;;;;9.27;5.47;;;20.90;98.60;;;;;;4987797;28;20026;-71
2023/10/07 11:14:59;;;;;;;9.63;5.40;;;21.10;98.30;;;;;;4990396;28;20077;-71
2023/10/07 11:17:23;;;;;;;7.85;5.05;;;21.10;98.00;;;;;;4994630;28;20452;-71
2023/10/07 11:19:51;;;;;;;8.85;5.40;;;21.10;97.70;;;;;;4987288;28;20035;-71
2023/10/07 11:22:21;;;;;;;8.02;4.70;;;21.00;97.60;;;;;;4986839;28;20026;-71
2023/10/07 11:24:50;;;;;;;9.93;5.47;;;21.10;97.70;;;;;;4995666;28;20044;-71
2023/10/07 11:27:17;;;;;;;9.35;5.00;;;21.20;97.80;;;;;;4990252;28;20079;-71
2023/10/07 11:29:43;;;;;;;8.48;5.97;;;21.30;96.90;;;;;;4989832;28;20084;-71
2023/10/07 11:32:12;;;;;;;8.30;5.03;;;21.40;97.70;;;;;;4989833;28;20034;-71
2023/10/07 11:34:40;;;;;;;9.18;6.00;;;21.40;97.60;;;;;;4999469;28;20034;-71
2023/10/07 11:37:14;;;;;;;7.78;5.38;;;21.60;97.70;;;;;;4995644;28;20026;-71
2023/10/07 11:39:47;;;;;;;;;;;21.60;98.00;;;;;;4989150;28;20096;-72
2023/10/07 11:42:17;;;;;;;10.27;5.22;;;21.50;96.40;;;;;;4986874;28;19909;-73
2023/10/07 11:44:48;;;;;;;8.55;5.20;;;21.40;97.00;;;;;;4999890;28;20118;-71
2023/10/07 11:47:15;;;;;;;8.93;5.00;;;21.60;97.10;;;;;;4992816;28;20361;-72
2023/10/07 11:49:41;;;;;;;10.65;5.13;;;21.60;96.90;;;;;;4990084;28;20022;-71
2023/10/07 11:52:07;;;;;;;8.35;4.60;;;21.60;96.50;;;;;;4996603;28;20057;-72
2023/10/07 11:54:37;;;;;;;9.15;4.95;;;21.40;96.50;;;;;;4986137;28;20535;-71
2023/10/07 11:57:05;;;;;;;8.90;5.18;;;21.40;97.00;;;;;;4992946;28;20037;-71
2023/10/07 11:59:31;;;;;;;7.85;4.80;;;21.80;97.30;;;;;;4994977;28;20058;-72
2023/10/07 12:01:57;;;;;;;11.63;5.18;;;22.10;97.40;;;;;;4989635;28;20078;-71
2023/10/07 12:04:23;;;;;;;8.38;4.75;;;22.20;96.80;;;;;;4988869;28;20045;-71
2023/10/07 12:06:51;;;;;;;9.35;5.20;;;22.10;96.50;;;;;;4992213;28;20019;-71
2023/10/07 12:09:21;;;;;;;8.98;5.45;;;22.10;96.20;;;;;;4999136;28;20033;-71
2023/10/07 12:11:48;;;;;;;9.70;4.40;;;22.20;96.20;;;;;;4987586;28;20034;-71
2023/10/07 12:14:15;;;;;;;8.90;5.50;;;22.20;96.50;;;;;;4992803;28;20042;-72
2023/10/07 12:16:43;;;;;;;10.25;4.90;;;22.30;96.20;;;;;;4993005;28;20028;-71
2023/10/07 12:19:11;;;;;;;10.15;5.03;;;22.40;96.50;;;;;;4988908;28;20053;-71
2023/10/07 12:21:39;;;;;;;22.35;6.03;;;22.40;96.00;;;;;;4994402;28;20022;-71
2023/10/07 12:24:06;;;;;;;9.55;4.85;;;22.20;95.70;;;;;;4989609;28;20069;-71
2023/10/07 12:26:31;;;;;;;11.30;4.85;;;22.30;95.10;;;;;;4991772;28;20033;-71
2023/10/07 12:28:58;;;;;;;9.20;4.43;;;22.40;95.30;;;;;;4995457;28;20046;-71
2023/10/07 12:31:24;;;;;;;7.45;4.75;;;22.50;95.20;;;;;;4994109;28;20041;-71
2023/10/07 12:33:50;;;;;;;10.60;4.50;;;22.50;95.30;;;;;;4986139;28;20034;-72
2023/10/07 12:36:18;;;;;;;8.63;4.65;;;22.80;95.70;;;;;;4998459;28;20036;-71
2023/10/07 12:38:44;;;;;;;11.25;5.03;;;22.90;95.20;;;;;;4991516;28;20026;-71
2023/10/07 12:41:12;;;;;;;7.53;4.70;;;23.00;95.80;;;;;;4990127;28;20045;-72
2023/10/07 12:43:38;;;;;;;10.20;5.13;;;23.20;95.60;;;;;;4998368;28;20030;-71
2023/10/07 12:46:10;;;;;;;7.18;4.47;;;23.30;95.60;;;;;;4997038;28;20044;-71
2023/10/07 12:48:40;;;;;;;9.57;4.72;;;23.30;95.00;;;;;;4989709;28;20026;-70
2023/10/07 12:51:09;;;;;;;9.70;4.32;;;23.30;95.80;;;;;;5000161;28;20034;-72
2023/10/07 12:53:35;;;;;;;12.38;5.47;;;23.20;94.40;;;;;;4986168;28;20034;-72
2023/10/07 12:56:31;;;;;;;7.45;4.20;;;23.00;94.30;;;;;;4986920;28;20038;-72
2023/10/07 12:58:57;;;;;;;9.63;5.22;;;23.10;94.80;;;;;;4970860;28;20061;-72
2023/10/07 13:01:22;;;;;;;9.45;5.53;;;23.30;95.10;;;;;;4990478;28;20072;-71
2023/10/07 13:03:52;;;;;;;7.97;4.95;;;23.40;94.80;;;;;;4994331;28;20441;-71
2023/10/07 13:06:19;;;;;;;7.30;4.72;;;23.20;94.10;;;;;;4983983;28;20472;-71
2023/10/07 13:08:45;;;;;;;8.63;4.78;;;23.20;94.30;;;;;;4986401;28;20031;-71
2023/10/07 13:11:12;;;;;;;9.32;4.65;;;23.30;94.30;;;;;;4982064;28;20041;-71
2023/10/07 13:13:42;;;;;;;8.55;4.85;;;23.20;94.50;;;;;;4982829;28;20042;-71
2023/10/07 13:16:10;;;;;;;7.57;4.78;;;23.30;95.40;;;;;;4980957;28;20049;-70
2023/10/07 13:18:40;;;;;;;8.13;4.55;;;23.50;95.10;;;;;;4982856;28;20033;-71
2023/10/07 13:21:18;;;;;;;8.13;5.05;;;23.40;94.80;;;;;;4982621;28;20088;-71
2023/10/07 13:23:46;;;;;;;9.48;5.28;;;23.40;94.60;;;;;;4995069;28;20022;-71
2023/10/07 13:26:11;;;;;;;10.20;4.53;;;23.40;94.90;;;;;;4982559;28;20438;-71
2023/10/07 13:28:38;;;;;;;9.95;5.15;;;23.30;94.70;;;;;;4985712;28;20077;-71
2023/10/07 13:31:09;;;;;;;7.45;4.68;;;23.40;94.80;;;;;;4988648;28;20114;-71
2023/10/07 13:33:38;;;;;;;9.10;4.43;;;23.40;93.90;;;;;;4987818;28;20048;-70
2023/10/07 13:36:06;;;;;;;8.88;4.68;;;23.40;94.40;;;;;;4990152;28;20038;-70
2023/10/07 13:38:32;;;;;;;7.40;4.55;;;23.50;94.70;;;;;;4985057;28;20034;-70
2023/10/07 13:40:59;;;;;;;8.20;4.07;;;23.40;94.10;;;;;;4981760;28;20108;-70
2023/10/07 13:43:29;;;;;;;8.80;5.20;;;23.40;95.10;;;;;;4989126;28;20026;-70
2023/10/07 13:45:56;;;;;;;10.20;5.00;;;23.60;95.10;;;;;;4983056;28;20448;-71